Time;durP1;ratioP1;P1;durP2;ratioP2;P2;SDS_P1;SDS_P2;PMS_P1;PMS_P2;Temp;Humidity;BMP_temperature;BMP_pressure;BME280_temperature;BME280_humidity;BME280_pressure;Samples;Min_cycle;Max_cycle;Signal;HPM_P1;HPM_P2
2023/09/21 00:00:08;;;;;;;5.85;4.63;;;;;;;20.62;77.88;98358.78;5113094;28;20169;-57
2023/09/21 00:02:33;;;;;;;4.57;4.10;;;;;;;20.65;77.01;98337.41;5112858;28;20680;-58
2023/09/21 00:04:59;;;;;;;6.72;4.57;;;;;;;20.50;77.19;98311.00;5112673;28;20182;-58
2023/09/21 00:07:24;;;;;;;5.45;3.78;;;;;;;20.63;76.96;98334.94;5112878;28;20175;-58
2023/09/21 00:09:50;;;;;;;8.35;4.03;;;;;;;20.66;76.69;98339.03;5112687;28;20170;-58
2023/09/21 00:12:15;;;;;;;4.75;3.72;;;;;;;21.00;75.56;98355.38;5112614;28;20698;-58
2023/09/21 00:14:41;;;;;;;8.38;3.88;;;;;;;21.09;74.98;98357.00;5112589;28;20568;-57
2023/09/21 00:17:07;;;;;;;5.25;4.15;;;;;;;20.76;76.00;98339.69;5112503;28;20179;-58
2023/09/21 00:19:33;;;;;;;6.07;3.50;;;;;;;20.64;76.38;98331.31;5112528;28;20175;-57
2023/09/21 00:21:58;;;;;;;7.10;3.92;;;;;;;20.69;76.43;98350.03;5112352;28;20252;-57
2023/09/21 00:24:24;;;;;;;5.38;3.90;;;;;;;20.78;76.30;98366.63;5112442;28;20169;-57
2023/09/21 00:26:51;;;;;;;5.60;4.28;;;;;;;20.62;76.50;98325.41;5112454;28;20177;-57
2023/09/21 00:29:16;;;;;;;7.53;4.40;;;;;;;20.89;75.54;98345.22;5112418;28;20167;-57
2023/09/21 00:31:42;;;;;;;7.03;4.47;;;;;;;20.92;75.04;98340.44;5112082;28;20225;-58
2023/09/21 00:34:08;;;;;;;6.97;4.30;;;;;;;20.79;76.34;98355.09;5112357;28;20175;-58
2023/09/21 00:36:35;;;;;;;7.22;4.32;;;;;;;20.60;76.73;98330.03;5111718;28;20179;-58
2023/09/21 00:39:01;;;;;;;10.45;4.63;;;;;;;20.50;78.75;98354.84;5112272;28;20214;-58
2023/09/21 00:41:31;;;;;;;8.50;4.53;;;;;;;20.31;79.02;98340.31;5112176;28;20232;-58
2023/09/21 00:43:58;;;;;;;6.13;4.38;;;;;;;20.27;79.91;98343.41;5112525;28;20197;-58
2023/09/21 00:46:27;;;;;;;11.18;4.82;;;;;;;20.39;79.07;98344.72;5112094;28;20267;-58
2023/09/21 00:48:53;;;;;;;8.43;4.40;;;;;;;20.53;78.28;98349.28;5111997;28;20175;-58
2023/09/21 00:51:18;;;;;;;6.78;4.65;;;;;;;20.40;78.20;98327.97;5068661;28;20195;-58
2023/09/21 00:53:45;;;;;;;7.72;4.70;;;;;;;20.49;78.84;98358.47;5068875;28;20189;-58
2023/09/21 00:56:13;;;;;;;7.22;4.72;;;;;;;20.36;79.46;98343.25;5068850;28;20195;-58
2023/09/21 00:58:44;;;;;;;9.73;4.45;;;;;;;20.15;79.43;98315.84;5068876;28;20662;-58
2023/09/21 01:01:22;;;;;;;6.57;4.15;;;;;;;20.07;79.88;98307.97;5068760;28;20250;-58
2023/09/21 01:03:50;;;;;;;6.57;4.72;;;;;;;19.98;81.02;98311.56;5068816;28;20589;-58
2023/09/21 01:06:18;;;;;;;9.43;4.97;;;;;;;20.29;80.05;98346.72;5068797;28;20196;-57
2023/09/21 01:08:44;;;;;;;6.72;4.10;;;;;;;20.08;79.91;98307.00;5068864;28;20191;-57
2023/09/21 01:11:10;;;;;;;14.68;5.00;;;;;;;20.34;79.74;98334.69;5068744;28;20180;-57
2023/09/21 01:13:36;;;;;;;8.40;4.60;;;;;;;20.36;79.65;98343.25;5068643;28;20215;-57
2023/09/21 01:16:03;;;;;;;8.98;4.75;;;;;;;20.13;79.54;98295.00;5068608;28;20184;-57
2023/09/21 01:18:28;;;;;;;9.57;4.30;;;;;;;20.02;80.17;98295.31;5068596;28;20188;-57
2023/09/21 01:21:04;;;;;;;6.13;3.92;;;;;;;20.11;80.25;98309.31;5068617;28;20610;-57
2023/09/21 01:23:34;;;;;;;12.93;5.10;;;;;;;19.93;80.57;98298.94;5111546;28;20676;-57
2023/09/21 01:26:00;;;;;;;9.35;4.07;;;;;;;20.23;80.52;98348.19;5111733;28;20163;-57
2023/09/21 01:28:28;;;;;;;13.00;4.93;;;;;;;19.99;80.69;98318.47;5111354;28;20673;-57
2023/09/21 01:30:56;;;;;;;7.10;3.78;;;;;;;19.69;82.76;98321.78;5111563;28;20258;-57
2023/09/21 01:33:23;;;;;;;6.15;4.50;;;;;;;19.65;84.04;98333.59;5068406;28;20199;-57
2023/09/21 01:35:49;;;;;;;5.53;4.13;;;;;;;19.63;84.33;98339.00;5068586;28;20195;-58
2023/09/21 01:38:14;;;;;;;4.85;3.67;;;;;;;19.76;83.70;98349.00;5068577;28;20223;-58
2023/09/21 01:40:42;;;;;;;5.70;4.07;;;;;;;19.66;82.52;98303.72;5068839;28;20638;-58
2023/09/21 01:43:15;;;;;;;8.73;4.82;;;;;;;19.63;83.09;98304.88;5068364;28;20292;-57
2023/09/21 01:45:42;;;;;;;9.13;5.05;;;;;;;19.81;83.23;98338.84;5067756;28;20200;-57
2023/09/21 01:48:09;;;;;;;5.55;3.85;;;;;;;19.66;84.33;98343.09;5071692;28;20208;-57
2023/09/21 01:50:40;;;;;;;8.38;4.10;;;;;;;19.37;84.75;98316.50;5072500;28;20263;-57
2023/09/21 01:53:09;;;;;;;8.73;4.53;;;;;;;19.72;84.00;98345.06;5072433;28;20172;-57
2023/09/21 01:55:39;;;;;;;5.70;3.80;;;;;;;19.45;84.99;98324.34;5072349;28;20718;-58
2023/09/21 01:58:05;;;;;;;7.70;4.20;;;;;;;19.43;84.74;98327.19;5072207;28;20576;-58
2023/09/21 02:00:34;;;;;;;6.28;4.15;;;;;;;19.61;84.87;98350.63;5072130;28;20278;-58
2023/09/21 02:03:03;;;;;;;9.18;4.15;;;;;;;19.78;82.89;98340.00;5072069;28;20208;-57
2023/09/21 02:05:29;;;;;;;11.88;3.90;;;;;;;19.58;83.08;98303.72;5072049;28;20304;-57
2023/09/21 02:07:55;;;;;;;7.07;4.22;;;;;;;19.51;83.28;98310.59;5072011;28;20185;-57
2023/09/21 02:10:20;;;;;;;5.50;3.78;;;;;;;19.38;84.10;98312.88;5085596;28;20179;-57
2023/09/21 02:12:54;;;;;;;4.38;3.47;;;;;;;19.24;84.39;98295.97;5114852;28;20241;-57
2023/09/21 02:15:19;;;;;;;6.32;3.92;;;;;;;19.15;85.30;98286.41;5115244;28;20182;-57
2023/09/21 02:17:45;;;;;;;5.47;3.75;;;;;;;19.13;87.08;98319.03;5114917;28;20183;-57
2023/09/21 02:20:14;;;;;;;9.70;3.95;;;;;;;18.91;88.00;98290.78;5114912;28;20179;-57
2023/09/21 02:22:46;;;;;;;9.18;4.28;;;;;;;19.04;87.61;98309.50;5114703;28;20256;-57
2023/09/21 02:25:12;;;;;;;6.38;4.75;;;;;;;18.67;88.85;98275.81;5114883;28;20543;-57
2023/09/21 02:27:39;;;;;;;5.38;3.85;;;;;;;18.96;88.68;98305.06;5114869;28;20617;-57
2023/09/21 02:30:13;;;;;;;7.47;3.72;;;;;;;18.92;89.35;98305.53;5114686;28;20258;-57
2023/09/21 02:32:43;;;;;;;5.60;3.88;;;;;;;18.75;90.24;98303.81;5114774;28;20177;-57
2023/09/21 02:35:14;;;;;;;4.45;4.05;;;;;;;18.66;89.74;98279.38;5114643;28;20534;-57
2023/09/21 02:37:46;;;;;;;8.80;4.30;;;;;;;18.73;89.62;98292.69;5114606;28;20185;-57
2023/09/21 02:40:17;;;;;;;5.43;3.65;;;;;;;18.81;89.09;98287.47;5114688;28;20202;-57
2023/09/21 02:42:44;;;;;;;7.05;4.38;;;;;;;18.97;87.80;98303.25;5114409;28;20199;-57
2023/09/21 02:45:13;;;;;;;6.75;4.47;;;;;;;19.14;86.88;98310.19;5114443;28;20215;-57
2023/09/21 02:47:43;;;;;;;8.07;4.05;;;;;;;19.19;87.03;98323.63;5114406;28;20258;-57
2023/09/21 02:50:25;;;;;;;6.03;3.53;;;;;;;19.24;87.48;98337.13;5051160;28;20531;-57
2023/09/21 02:52:56;;;;;;;4.32;3.95;;;;;;;19.04;89.23;98340.97;5051234;28;20181;-57
2023/09/21 02:55:26;;;;;;;4.82;3.88;;;;;;;18.78;89.35;98304.34;5051181;28;20181;-57
2023/09/21 02:58:10;;;;;;;7.50;4.10;;;;;;;19.11;87.56;98315.75;5050758;28;20671;-57
2023/09/21 03:00:43;;;;;;;5.20;4.20;;;;;;;19.34;86.60;98327.28;5051115;28;20189;-57
2023/09/21 03:03:12;;;;;;;6.45;4.03;;;;;;;19.41;86.63;98336.19;5051041;28;20212;-57
2023/09/21 03:05:38;;;;;;;9.15;3.92;;;;;;;19.08;87.07;98295.09;5050942;28;20185;-57
2023/09/21 03:08:05;;;;;;;7.55;4.25;;;;;;;18.87;88.96;98302.56;5050937;28;20267;-58
2023/09/21 03:10:31;;;;;;;7.35;3.30;;;;;;;19.01;90.06;98336.06;5050803;28;20287;-58
2023/09/21 03:12:57;;;;;;;5.68;3.90;;;;;;;19.02;89.66;98327.19;5050691;28;20240;-58
2023/09/21 03:15:23;;;;;;;5.13;3.80;;;;;;;19.24;87.08;98329.25;5050820;28;20272;-58
2023/09/21 03:17:54;;;;;;;9.15;3.78;;;;;;;19.43;85.77;98340.28;5050771;28;20265;-58
2023/09/21 03:20:37;;;;;;;5.55;3.65;;;;;;;19.36;85.43;98323.53;5061676;28;20183;-57
2023/09/21 03:23:05;;;;;;;4.63;3.78;;;;;;;19.25;86.57;98307.28;5113649;28;20198;-58
2023/09/21 03:25:34;;;;;;;4.53;3.92;;;;;;;19.42;86.55;98322.88;5113633;28;20179;-58
2023/09/21 03:28:24;;;;;;;3.88;3.47;;;;;;;19.24;86.97;98318.78;5113708;28;20282;-58
2023/09/21 03:30:51;;;;;;;4.28;3.88;;;;;;;19.56;86.45;98358.16;5112865;28;20183;-57
2023/09/21 03:33:18;;;;;;;5.28;4.15;;;;;;;19.57;85.74;98354.56;5113530;28;20175;-58
2023/09/21 03:35:43;;;;;;;5.22;3.65;;;;;;;19.46;85.38;98336.53;5113501;28;20182;-58
2023/09/21 03:38:13;;;;;;;4.00;3.70;;;;;;;19.50;85.53;98343.06;5113508;28;20176;-58
2023/09/21 03:40:39;;;;;;;6.30;4.30;;;;;;;19.48;87.55;98373.91;5113811;28;20602;-57
2023/09/21 03:43:06;;;;;;;9.48;4.18;;;;;;;19.47;87.12;98353.91;5113396;28;20263;-57
2023/09/21 03:45:32;;;;;;;5.03;3.90;;;;;;;19.34;86.78;98337.78;5113157;28;20202;-58
2023/09/21 03:47:59;;;;;;;5.32;4.55;;;;;;;19.40;87.19;98343.22;5113147;28;20226;-57
2023/09/21 03:50:25;;;;;;;3.92;3.58;;;;;;;19.10;89.70;98340.31;5113078;28;20344;-58
2023/09/21 03:52:53;;;;;;;4.38;3.58;;;;;;;19.05;89.75;98342.63;5113053;28;20214;-58
2023/09/21 03:55:19;;;;;;;6.20;4.10;;;;;;;18.69;90.87;98301.84;5113053;28;20168;-58
2023/09/21 03:57:46;;;;;;;5.22;3.65;;;;;;;18.86;90.88;98332.38;5113128;28;20175;-57
2023/09/21 04:00:36;;;;;;;7.28;3.97;;;;;;;18.99;89.92;98343.25;5112911;28;20672;-58
2023/09/21 04:03:11;;;;;;;5.50;3.80;;;;;;;19.17;88.27;98344.78;5112874;28;20195;-58
2023/09/21 04:05:39;;;;;;;5.40;4.25;;;;;;;19.25;88.45;98350.09;5112858;28;20666;-58
2023/09/21 04:08:05;;;;;;;9.48;4.10;;;;;;;19.38;87.56;98360.94;5112741;28;20183;-58
2023/09/21 04:10:31;;;;;;;5.47;3.88;;;;;;;19.42;88.06;98371.94;5112407;28;20179;-58
2023/09/21 04:12:57;;;;;;;7.40;4.20;;;;;;;19.33;88.56;98359.78;5112413;28;20281;-58
2023/09/21 04:15:27;;;;;;;6.18;3.92;;;;;;;19.17;89.29;98346.59;5112506;28;20250;-58
2023/09/21 04:17:54;;;;;;;3.78;3.42;;;;;;;18.99;90.01;98330.13;5112480;28;20265;-58
2023/09/21 04:20:21;;;;;;;5.40;3.92;;;;;;;18.97;91.32;98337.34;5112428;28;20175;-58
2023/09/21 04:22:49;;;;;;;24.20;5.78;;;;;;;18.95;90.96;98320.97;5112427;28;20336;-58
2023/09/21 04:25:16;;;;;;;4.40;4.03;;;;;;;18.94;91.00;98319.31;5112369;28;20259;-57
2023/09/21 04:27:42;;;;;;;4.38;3.92;;;;;;;18.99;91.68;98338.00;5112286;28;20182;-58
2023/09/21 04:30:09;;;;;;;7.63;4.25;;;;;;;19.06;91.11;98334.59;5112360;28;20172;-57
2023/09/21 04:32:38;;;;;;;13.85;5.95;;;;;;;19.35;90.62;98376.19;5112183;28;20180;-58
2023/09/21 04:35:07;;;;;;;6.13;4.80;;;;;;;19.26;89.26;98327.28;5111976;28;20656;-57
2023/09/21 04:37:34;;;;;;;9.45;4.32;;;;;;;19.70;88.12;98376.72;5112159;28;20286;-58
2023/09/21 04:40:01;;;;;;;7.22;4.45;;;;;;;19.73;87.94;98365.09;5112171;28;20174;-57
2023/09/21 04:42:30;;;;;;;10.13;4.70;;;;;;;19.73;88.21;98367.72;5111805;28;20255;-58
2023/09/21 04:44:57;;;;;;;9.25;5.45;;;;;;;19.69;88.65;98358.53;5112023;28;20680;-58
2023/09/21 04:47:23;;;;;;;5.68;4.72;;;;;;;19.80;88.50;98379.19;5111997;28;20179;-57
2023/09/21 04:49:49;;;;;;;9.10;5.00;;;;;;;19.86;88.43;98368.88;5111913;28;20175;-57
2023/09/21 04:52:14;;;;;;;10.93;4.97;;;;;;;19.76;87.94;98333.25;5112283;28;20262;-56
2023/09/21 04:54:40;;;;;;;10.68;5.85;;;;;;;20.01;87.17;98369.88;5112180;28;20175;-56
2023/09/21 04:57:05;;;;;;;11.43;5.57;;;;;;;19.98;86.18;98353.59;5111966;28;20638;-57
2023/09/21 04:59:30;;;;;;;12.18;5.57;;;;;;;20.05;86.10;98359.84;5111906;28;20167;-58
2023/09/21 05:01:56;;;;;;;12.95;5.57;;;;;;;20.11;85.54;98351.34;5111565;28;20312;-57
2023/09/21 05:04:21;;;;;;;11.05;5.32;;;;;;;20.31;85.38;98360.50;5111901;28;20178;-57
2023/09/21 05:06:47;;;;;;;9.43;4.90;;;;;;;20.37;84.07;98351.94;5111899;28;20186;-56
2023/09/21 05:09:12;;;;;;;7.53;5.15;;;;;;;20.28;83.59;98321.44;5111852;28;20175;-58
2023/09/21 05:11:41;;;;;;;5.20;4.43;;;;;;;20.57;83.76;98355.84;5111833;28;20177;-58
2023/09/21 05:14:07;;;;;;;6.55;5.03;;;;;;;20.41;83.05;98319.09;5111998;28;20186;-58
2023/09/21 05:16:33;;;;;;;6.00;3.95;;;;;;;20.36;83.27;98321.41;5111747;28;20179;-58
2023/09/21 05:18:58;;;;;;;5.88;4.60;;;;;;;20.49;82.33;98321.69;5111646;28;20179;-58
2023/09/21 05:21:24;;;;;;;5.40;4.57;;;;;;;20.58;82.93;98332.00;5088234;28;20183;-56
2023/09/21 05:23:49;;;;;;;5.25;4.78;;;;;;;20.52;81.57;98331.88;5088739;28;20728;-57
2023/09/21 05:26:15;;;;;;;5.78;4.40;;;;;;;20.60;82.05;98353.69;5088776;28;20184;-57
2023/09/21 05:28:40;;;;;;;5.68;4.78;;;;;;;20.35;83.23;98333.69;5088849;28;20171;-57
2023/09/21 05:31:09;;;;;;;4.35;4.05;;;;;;;20.45;82.47;98336.16;5088696;28;20210;-57
2023/09/21 05:33:36;;;;;;;5.35;4.38;;;;;;;20.34;82.57;98313.66;5088684;28;20558;-57
2023/09/21 05:36:04;;;;;;;4.78;4.25;;;;;;;20.41;82.93;98332.22;5088646;28;20199;-58
2023/09/21 05:38:33;;;;;;;5.40;4.90;;;;;;;20.54;83.20;98349.13;5088774;28;20203;-57
2023/09/21 05:41:05;;;;;;;11.50;6.93;;;;;;;20.46;84.33;98333.34;5088750;28;20222;-58
2023/09/21 05:43:31;;;;;;;12.35;7.80;;;;;;;20.46;83.85;98322.03;5088614;28;20218;-57
2023/09/21 05:45:56;;;;;;;9.55;6.05;;;;;;;20.63;83.17;98328.88;5088354;28;20176;-57
2023/09/21 05:48:22;;;;;;;6.05;5.53;;;;;;;20.73;83.02;98342.63;5088470;28;20556;-57
2023/09/21 05:50:48;;;;;;;7.25;5.63;;;;;;;20.93;83.26;98372.84;5088382;28;20184;-57
2023/09/21 05:53:13;;;;;;;6.93;4.72;;;;;;;20.96;83.88;98364.59;5107650;28;20563;-57
2023/09/21 05:55:41;;;;;;;11.90;5.18;;;;;;;20.98;83.49;98357.38;5110956;28;20638;-57
2023/09/21 05:58:06;;;;;;;13.43;5.47;;;;;;;20.99;83.31;98353.75;5111181;28;20209;-57
2023/09/21 06:00:32;;;;;;;13.75;7.65;;;;;;;21.27;82.63;98392.59;5111442;28;20259;-57
2023/09/21 06:03:00;;;;;;;19.02;6.95;;;;;;;21.32;82.15;98392.09;5110946;28;20289;-57
2023/09/21 06:05:31;;;;;;;16.25;6.05;;;;;;;21.27;82.36;98381.25;5111184;28;20274;-57
2023/09/21 06:07:57;;;;;;;15.52;5.93;;;;;;;21.43;81.27;98391.66;5111143;28;20175;-57
2023/09/21 06:10:23;;;;;;;16.00;6.22;;;;;;;21.29;80.88;98374.00;5111064;28;20171;-57
2023/09/21 06:12:50;;;;;;;17.73;7.10;;;;;;;21.53;80.72;98414.19;5110594;28;20190;-57
2023/09/21 06:15:16;;;;;;;11.50;6.35;;;;;;;21.39;81.08;98385.13;5110635;28;20649;-57
2023/09/21 06:17:41;;;;;;;9.77;7.32;;;;;;;21.45;81.47;98400.25;5068011;28;20558;-57
2023/09/21 06:20:07;;;;;;;10.02;7.80;;;;;;;21.52;81.66;98401.19;5067908;28;20279;-57
2023/09/21 06:22:33;;;;;;;14.05;7.00;;;;;;;21.35;81.95;98389.94;5047607;28;20213;-57
2023/09/21 06:24:59;;;;;;;11.88;7.05;;;;;;;21.49;81.70;98402.34;5027786;28;20185;-57
2023/09/21 06:27:26;;;;;;;18.52;6.82;;;;;;;21.37;82.14;98395.00;5027966;28;20186;-57
2023/09/21 06:29:51;;;;;;;12.45;6.60;;;;;;;21.38;82.02;98392.19;5027904;28;20703;-57
2023/09/21 06:32:18;;;;;;;12.52;6.80;;;;;;;21.10;83.27;98379.69;5027909;28;20193;-57
2023/09/21 06:34:45;;;;;;;10.75;7.00;;;;;;;21.14;83.01;98375.69;5030205;28;20339;-57
2023/09/21 06:37:13;;;;;;;16.88;7.07;;;;;;;21.13;82.82;98360.91;5031339;28;20197;-57
2023/09/21 06:39:39;;;;;;;13.75;6.72;;;;;;;21.44;83.93;98388.06;5031269;28;20524;-57
2023/09/21 06:42:05;;;;;;;15.38;5.80;;;;;;;21.38;83.43;98389.56;5031270;28;20205;-57
2023/09/21 06:44:31;;;;;;;8.43;5.78;;;;;;;21.35;83.41;98373.28;5031301;28;20695;-57
2023/09/21 06:46:56;;;;;;;7.63;6.05;;;;;;;21.38;83.44;98372.97;5031192;28;20269;-57
2023/09/21 06:49:23;;;;;;;11.38;6.00;;;;;;;21.52;83.38;98395.91;5062653;28;20184;-57
2023/09/21 06:51:49;;;;;;;10.38;5.75;;;;;;;21.37;83.67;98366.03;5071100;28;20265;-57
2023/09/21 06:54:15;;;;;;;7.88;5.57;;;;;;;21.47;83.12;98374.53;5071152;28;20339;-57
2023/09/21 06:56:40;;;;;;;12.52;5.82;;;;;;;21.60;80.80;98375.63;5087273;28;20184;-57
2023/09/21 06:59:06;;;;;;;11.27;5.68;;;;;;;21.68;80.69;98374.78;5094666;28;20210;-57
2023/09/21 07:01:33;;;;;;;12.88;6.97;;;;;;;21.90;79.55;98405.56;5113954;28;20175;-57
2023/09/21 07:03:58;;;;;;;10.35;6.72;;;;;;;21.82;80.11;98393.28;5113824;28;20354;-57
2023/09/21 07:06:24;;;;;;;16.10;6.28;;;;;;;21.77;80.11;98373.72;5114087;28;20198;-57
2023/09/21 07:08:50;;;;;;;13.18;6.57;;;;;;;21.91;79.12;98388.78;5113902;28;20186;-57
2023/09/21 07:11:18;;;;;;;16.90;6.70;;;;;;;21.98;79.61;98403.69;5113949;28;20171;-57
2023/09/21 07:13:45;;;;;;;13.25;5.53;;;;;;;22.02;79.41;98409.44;5113966;28;20271;-57
2023/09/21 07:16:10;;;;;;;9.50;6.20;;;;;;;21.91;79.31;98388.78;5113745;28;20537;-57
2023/09/21 07:18:37;;;;;;;10.52;6.50;;;;;;;21.96;79.31;98376.69;5113750;28;20256;-57
2023/09/21 07:21:03;;;;;;;8.88;5.93;;;;;;;22.22;78.90;98405.31;5113772;28;20254;-57
2023/09/21 07:23:28;;;;;;;15.93;6.47;;;;;;;22.11;78.68;98392.56;5113589;28;20199;-57
2023/09/21 07:25:53;;;;;;;10.63;6.55;;;;;;;22.27;78.79;98400.31;5113520;28;20637;-57
2023/09/21 07:28:19;;;;;;;11.25;5.93;;;;;;;22.38;77.75;98416.53;5113793;28;20171;-57
2023/09/21 07:30:44;;;;;;;10.60;6.60;;;;;;;22.50;77.17;98416.97;5050218;28;20663;-57
2023/09/21 07:33:10;;;;;;;9.05;5.90;;;;;;;22.43;76.55;98392.28;5050321;28;20193;-57
2023/09/21 07:35:36;;;;;;;11.20;5.63;;;;;;;22.62;75.57;98402.31;5050304;28;20185;-57
2023/09/21 07:38:02;;;;;;;10.73;5.90;;;;;;;22.68;74.86;98391.84;5050281;28;20641;-57
2023/09/21 07:40:27;;;;;;;14.32;8.18;;;;;;;22.74;74.42;98406.16;5050214;28;20224;-57
2023/09/21 07:42:53;;;;;;;8.77;6.32;;;;;;;22.88;74.41;98413.25;5050079;28;20274;-56
2023/09/21 07:45:20;;;;;;;9.07;6.15;;;;;;;22.98;73.35;98419.06;5049748;28;20586;-56
2023/09/21 07:47:45;;;;;;;11.73;6.47;;;;;;;22.89;73.57;98401.72;5050097;28;20251;-57
2023/09/21 07:50:11;;;;;;;10.95;5.72;;;;;;;23.05;72.99;98425.25;5049951;28;20193;-57
2023/09/21 07:52:36;;;;;;;12.55;6.72;;;;;;;22.85;72.99;98388.03;5050100;28;20273;-57
2023/09/21 07:55:08;;;;;;;8.02;5.15;;;;;;;23.08;71.69;98409.88;5050003;28;20534;-57
2023/09/21 07:57:37;;;;;;;6.75;5.35;;;;;;;22.97;71.79;98386.56;5049901;28;20263;-57
2023/09/21 08:00:05;;;;;;;10.65;5.82;;;;;;;23.20;71.88;98423.47;5049836;28;20181;-57
2023/09/21 08:02:31;;;;;;;14.10;5.88;;;;;;;23.05;71.73;98406.78;5096993;28;20249;-57
2023/09/21 08:04:57;;;;;;;11.43;4.97;;;;;;;23.00;73.11;98399.41;5112795;28;20175;-57
2023/09/21 08:07:26;;;;;;;9.15;5.38;;;;;;;23.16;72.83;98414.25;5113095;28;20669;-57
2023/09/21 08:09:54;;;;;;;9.07;5.22;;;;;;;23.18;72.37;98420.19;5112688;28;20168;-57
2023/09/21 08:12:30;;;;;;;11.32;5.40;;;;;;;23.31;72.05;98417.72;5112338;28;20629;-57
2023/09/21 08:14:57;;;;;;;7.82;5.05;;;;;;;23.13;71.90;98382.94;5112677;28;20163;-57
2023/09/21 08:17:23;;;;;;;7.57;5.15;;;;;;;22.99;72.63;98381.94;5112432;28;20653;-57
2023/09/21 08:19:48;;;;;;;11.07;5.90;;;;;;;23.10;71.42;98389.41;5112574;28;20175;-57
2023/09/21 08:22:14;;;;;;;10.00;5.22;;;;;;;23.26;71.38;98402.41;5112329;28;20352;-57
2023/09/21 08:24:41;;;;;;;11.48;5.57;;;;;;;23.45;71.35;98416.88;5112429;28;20220;-57
2023/09/21 08:27:07;;;;;;;8.02;6.15;;;;;;;23.36;70.42;98379.19;5112432;28;20179;-57
2023/09/21 08:29:33;;;;;;;14.80;6.93;;;;;;;23.64;69.69;98411.81;5112145;28;20171;-57
2023/09/21 08:31:58;;;;;;;10.25;6.22;;;;;;;23.41;70.29;98365.41;5112268;28;20717;-57
2023/09/21 08:34:24;;;;;;;14.77;6.72;;;;;;;23.49;70.59;98386.44;5112213;28;20629;-57
2023/09/21 08:36:50;;;;;;;10.27;5.93;;;;;;;23.38;70.86;98379.00;5112258;28;20208;-58
2023/09/21 08:39:16;;;;;;;8.77;5.88;;;;;;;23.49;70.44;98394.38;5112191;28;20622;-58
2023/09/21 08:41:47;;;;;;;7.78;5.55;;;;;;;23.45;71.00;98385.16;5112154;28;20186;-58
2023/09/21 08:44:13;;;;;;;8.82;5.20;;;;;;;23.50;71.10;98374.88;5112150;28;20191;-58
2023/09/21 08:46:40;;;;;;;12.48;5.32;;;;;;;23.67;69.60;98401.69;5111949;28;20190;-58
2023/09/21 08:49:09;;;;;;;9.07;5.60;;;;;;;23.60;69.66;98381.47;5111950;28;20228;-58
2023/09/21 08:51:39;;;;;;;5.90;5.30;;;;;;;23.71;69.74;98380.97;5111636;28;20202;-58
2023/09/21 08:54:07;;;;;;;8.98;5.50;;;;;;;23.83;69.34;98396.16;5111612;28;20239;-56
2023/09/21 08:56:33;;;;;;;8.65;5.20;;;;;;;23.91;69.24;98394.44;5111182;28;20175;-56
2023/09/21 08:59:00;;;;;;;7.30;5.07;;;;;;;23.96;69.30;98392.84;5111820;28;20181;-56
2023/09/21 09:01:26;;;;;;;10.32;5.82;;;;;;;23.77;67.62;98363.56;5111512;28;20179;-56
2023/09/21 09:03:53;;;;;;;10.63;5.60;;;;;;;23.74;68.01;98360.28;5111546;28;20198;-56
2023/09/21 09:06:18;;;;;;;8.13;5.38;;;;;;;23.77;68.50;98363.56;5111597;28;20175;-57
2023/09/21 09:08:46;;;;;;;8.85;5.40;;;;;;;23.96;67.95;98374.34;5111683;28;20183;-57
2023/09/21 09:11:38;;;;;;;6.65;5.10;;;;;;;24.12;68.26;98391.78;5111329;28;20213;-56
2023/09/21 09:14:10;;;;;;;7.90;4.50;;;;;;;24.18;67.88;98392.66;5111611;28;20209;-56
2023/09/21 09:16:36;;;;;;;7.10;4.97;;;;;;;24.19;67.45;98375.78;5111580;28;20181;-56
2023/09/21 09:19:05;;;;;;;7.95;4.53;;;;;;;24.45;66.56;98397.13;5111413;28;20183;-56
2023/09/21 09:21:31;;;;;;;8.25;4.88;;;;;;;24.51;66.21;98396.38;5111535;28;20262;-57
2023/09/21 09:23:56;;;;;;;8.15;4.40;;;;;;;24.47;65.60;98379.25;5111068;28;20301;-57
2023/09/21 09:26:22;;;;;;;5.68;4.32;;;;;;;24.62;63.47;98385.28;5111470;28;20170;-56
2023/09/21 09:28:48;;;;;;;5.30;4.60;;;;;;;24.65;63.40;98384.91;5111353;28;20352;-57
2023/09/21 09:31:14;;;;;;;5.10;4.68;;;;;;;24.79;62.74;98385.81;5068201;28;20187;-56
2023/09/21 09:33:40;;;;;;;5.00;4.60;;;;;;;24.82;62.65;98370.34;5068352;28;20216;-56
2023/09/21 09:36:06;;;;;;;7.35;4.50;;;;;;;24.81;61.28;98363.41;5068340;28;20305;-57
2023/09/21 09:38:33;;;;;;;8.57;4.65;;;;;;;24.81;61.62;98350.19;5068398;28;20176;-57
2023/09/21 09:41:04;;;;;;;12.48;4.82;;;;;;;25.03;61.11;98372.06;5068404;28;20212;-57
2023/09/21 09:43:30;;;;;;;5.55;4.20;;;;;;;24.93;61.69;98366.31;5068251;28;20598;-57
2023/09/21 09:45:58;;;;;;;7.20;4.68;;;;;;;25.05;61.98;98373.50;5068358;28;20292;-57
2023/09/21 09:48:25;;;;;;;12.02;4.90;;;;;;;24.76;61.92;98349.94;5068298;28;20176;-57
2023/09/21 09:50:57;;;;;;;8.75;4.32;;;;;;;24.84;62.43;98347.13;5048016;28;20212;-57
2023/09/21 09:53:24;;;;;;;6.15;4.70;;;;;;;25.15;62.20;98376.63;5048188;28;20197;-57
2023/09/21 09:55:53;;;;;;;7.15;4.60;;;;;;;25.15;61.73;98362.56;5048166;28;20200;-57
2023/09/21 09:58:20;;;;;;;5.97;4.55;;;;;;;25.15;61.28;98346.66;5048200;28;20276;-58
2023/09/21 10:00:45;;;;;;;6.93;4.05;;;;;;;25.29;61.33;98349.19;5048130;28;20189;-57
2023/09/21 10:03:12;;;;;;;5.55;3.90;;;;;;;25.49;59.61;98358.00;5048073;28;20310;-57
2023/09/21 10:05:39;;;;;;;6.90;4.80;;;;;;;25.53;59.13;98346.00;5048016;28;20262;-56
2023/09/21 10:08:07;;;;;;;8.13;4.70;;;;;;;25.55;59.46;98333.34;5060243;28;20257;-57
2023/09/21 10:10:38;;;;;;;7.70;4.60;;;;;;;25.77;59.35;98363.97;5092151;28;20218;-56
2023/09/21 10:13:05;;;;;;;5.70;4.30;;;;;;;25.75;58.89;98346.63;5091950;28;20191;-56
2023/09/21 10:15:33;;;;;;;10.52;4.63;;;;;;;25.86;58.80;98344.22;5092008;28;20808;-57
2023/09/21 10:17:59;;;;;;;5.40;4.43;;;;;;;25.96;57.81;98352.59;5091967;28;20642;-58
2023/09/21 10:20:27;;;;;;;8.95;4.88;;;;;;;25.90;57.59;98324.25;5091902;28;20219;-57
2023/09/21 10:22:54;;;;;;;4.82;4.43;;;;;;;26.02;58.54;98324.47;5112902;28;20230;-57
2023/09/21 10:25:44;;;;;;;13.68;5.35;;;;;;;26.35;56.30;98346.50;5114585;28;20175;-57
2023/09/21 10:28:27;;;;;;;9.38;4.90;;;;;;;26.17;56.60;98344.47;5114387;28;20174;-58
2023/09/21 10:31:09;;;;;;;9.82;5.10;;;;;;;26.10;57.45;98316.28;5114730;28;20171;-58
2023/09/21 10:33:58;;;;;;;11.82;4.75;;;;;;;26.42;57.88;98332.19;5114657;28;20649;-56
2023/09/21 10:36:27;;;;;;;9.65;4.80;;;;;;;26.29;56.95;98300.34;5083544;28;20187;-57
2023/09/21 10:39:10;;;;;;;9.02;4.90;;;;;;;26.80;55.17;98343.78;5091526;28;20249;-57
2023/09/21 10:41:45;;;;;;;10.90;5.18;;;;;;;26.96;54.88;98330.03;5091521;28;20348;-57
2023/09/21 10:44:12;;;;;;;8.40;5.28;;;;;;;27.20;54.00;98325.88;5091441;28;20823;-57
2023/09/21 10:46:38;;;;;;;9.05;4.80;;;;;;;27.31;54.27;98328.69;5091575;28;20562;-57
2023/09/21 10:49:03;;;;;;;10.95;5.10;;;;;;;27.50;53.28;98327.75;5091391;28;20187;-57
2023/09/21 10:51:33;;;;;;;9.93;4.60;;;;;;;27.37;52.63;98314.53;5091371;28;20187;-57
2023/09/21 10:54:00;;;;;;;10.65;4.35;;;;;;;27.14;52.72;98285.00;5091252;28;20176;-57
2023/09/21 10:56:26;;;;;;;5.70;4.43;;;;;;;27.03;53.08;98288.31;5091259;28;20568;-57
2023/09/21 10:58:52;;;;;;;8.25;4.47;;;;;;;27.03;52.93;98298.94;5091284;28;20692;-57
2023/09/21 11:01:19;;;;;;;10.50;4.65;;;;;;;26.79;53.68;98275.75;5091229;28;20168;-57
2023/09/21 11:03:48;;;;;;;6.50;4.30;;;;;;;26.75;53.94;98279.84;5091138;28;20212;-57
2023/09/21 11:06:17;;;;;;;9.18;4.82;;;;;;;26.61;54.06;98301.34;5091069;28;20183;-57
2023/09/21 11:08:47;;;;;;;8.80;5.03;;;;;;;26.38;55.23;98291.16;5111774;28;20187;-57
2023/09/21 11:11:13;;;;;;;8.40;4.70;;;;;;;26.45;56.65;98283.19;5050692;28;20506;-57
2023/09/21 11:13:39;;;;;;;7.07;4.85;;;;;;;26.38;55.38;98275.25;5050678;28;20232;-57
2023/09/21 11:16:06;;;;;;;10.50;4.53;;;;;;;26.31;55.53;98282.38;5050799;28;20221;-57
2023/09/21 11:18:31;;;;;;;8.10;4.88;;;;;;;26.21;56.92;98246.69;5050708;28;20181;-57
2023/09/21 11:20:58;;;;;;;7.75;4.50;;;;;;;26.46;55.52;98263.56;5029721;28;20770;-57
2023/09/21 11:23:24;;;;;;;14.52;4.80;;;;;;;26.51;56.61;98255.81;5030533;28;20303;-57
2023/09/21 11:25:49;;;;;;;8.15;4.65;;;;;;;26.58;55.94;98252.16;5030662;28;20234;-58
2023/09/21 11:28:16;;;;;;;8.98;4.57;;;;;;;26.63;55.96;98240.88;5030660;28;20247;-58
2023/09/21 11:30:42;;;;;;;6.20;4.57;;;;;;;26.92;55.44;98251.81;5030645;28;20196;-57
2023/09/21 11:33:10;;;;;;;6.32;4.63;;;;;;;27.02;54.80;98235.41;5030473;28;20217;-58